createdAt,value
2023-01-15T00:00:15.395Z,0.00
2023-01-15T00:01:15.177Z,0.00
2023-01-15T00:02:15.178Z,0.00
2023-01-15T00:03:15.166Z,0.00
2023-01-15T00:04:15.235Z,0.00
2023-01-15T00:05:15.637Z,0.00
2023-01-15T00:06:15.112Z,0.00
2023-01-15T00:07:15.152Z,0.00
2023-01-15T00:08:15.315Z,0.00
2023-01-15T00:09:15.764Z,0.00
2023-01-15T00:10:15.765Z,0.00
2023-01-15T00:11:15.743Z,0.00
2023-01-15T00:12:15.563Z,0.00
2023-01-15T00:13:15.380Z,0.00
2023-01-15T00:14:15.195Z,0.00
2023-01-15T00:15:15.123Z,0.00
2023-01-15T00:16:15.208Z,0.00
2023-01-15T00:17:15.058Z,0.00
2023-01-15T00:18:15.098Z,0.00
2023-01-15T00:19:15.888Z,0.00
2023-01-15T00:20:15.408Z,0.00
2023-01-15T00:21:15.748Z,0.00
2023-01-15T00:22:14.995Z,0.00
2023-01-15T00:23:15.485Z,0.00
2023-01-15T00:24:15.217Z,0.00
2023-01-15T00:25:15.495Z,0.00
2023-01-15T00:26:15.589Z,0.00
2023-01-15T00:27:14.970Z,0.00
2023-01-15T00:28:14.936Z,0.00
2023-01-15T00:29:15.195Z,0.00
2023-01-15T00:30:14.949Z,0.00
2023-01-15T00:31:14.954Z,0.00
2023-01-15T00:32:14.927Z,0.00
2023-01-15T00:33:14.965Z,0.00
2023-01-15T00:34:15.003Z,0.00
2023-01-15T00:35:15.055Z,0.00
2023-01-15T00:36:15.095Z,0.00
2023-01-15T00:37:15.143Z,0.00
2023-01-15T00:38:14.886Z,0.00
2023-01-15T00:39:15.236Z,0.00
2023-01-15T00:40:15.157Z,0.00
2023-01-15T00:41:15.333Z,0.00
2023-01-15T00:42:15.386Z,0.00
2023-01-15T00:43:15.163Z,0.00
2023-01-15T00:44:14.877Z,0.00
2023-01-15T00:45:14.961Z,0.00
2023-01-15T00:46:15.159Z,0.00
2023-01-15T00:47:15.060Z,0.00
2023-01-15T00:48:15.301Z,0.00
2023-01-15T00:49:14.892Z,0.00
2023-01-15T00:50:15.731Z,0.00
2023-01-15T00:51:14.850Z,0.00
2023-01-15T00:52:14.890Z,0.00
2023-01-15T00:53:15.110Z,0.00
2023-01-15T00:54:15.399Z,0.00
2023-01-15T00:55:15.827Z,0.00
2023-01-15T00:56:16.238Z,0.00
2023-01-15T00:57:14.769Z,0.00
2023-01-15T00:58:14.949Z,0.00
2023-01-15T00:59:15.558Z,0.00
2023-01-15T01:00:15.650Z,0.00
2023-01-15T01:01:15.686Z,0.00
2023-01-15T01:02:14.976Z,0.00
2023-01-15T01:03:14.825Z,0.00
2023-01-15T01:04:14.718Z,0.00
2023-01-15T01:05:14.733Z,0.00
2023-01-15T01:06:14.738Z,0.00
2023-01-15T01:07:14.757Z,0.00
2023-01-15T01:08:14.769Z,0.00
2023-01-15T01:09:14.780Z,0.00
2023-01-15T01:10:14.696Z,0.00
2023-01-15T01:11:14.730Z,0.00
2023-01-15T01:12:14.817Z,0.00
2023-01-15T01:13:14.833Z,0.00
2023-01-15T01:14:14.835Z,0.00
2023-01-15T01:15:16.187Z,0.00
2023-01-15T01:16:14.695Z,0.00
2023-01-15T01:17:14.795Z,0.00
2023-01-15T01:18:14.902Z,0.00
2023-01-15T01:19:14.915Z,0.00
2023-01-15T01:20:14.762Z,0.00
2023-01-15T01:21:14.981Z,0.00
2023-01-15T01:22:14.742Z,0.00
2023-01-15T01:23:14.949Z,0.00
2023-01-15T01:24:14.598Z,0.00
2023-01-15T01:25:14.592Z,0.00
2023-01-15T01:26:14.715Z,0.00
2023-01-15T01:27:14.944Z,0.00
2023-01-15T01:28:14.583Z,0.00
2023-01-15T01:29:14.966Z,0.00
2023-01-15T01:30:14.930Z,0.00
2023-01-15T01:31:15.095Z,0.00
2023-01-15T01:32:15.063Z,0.00
2023-01-15T01:33:14.542Z,0.00
2023-01-15T01:34:14.549Z,0.00
2023-01-15T01:35:14.558Z,0.00
2023-01-15T01:36:14.551Z,0.00
2023-01-15T01:37:14.540Z,0.00
2023-01-15T01:38:14.501Z,0.00
2023-01-15T01:39:15.968Z,0.00
2023-01-15T01:40:14.482Z,0.00
2023-01-15T01:41:14.493Z,0.00
2023-01-15T01:42:14.531Z,0.00
2023-01-15T01:43:14.518Z,0.00
2023-01-15T01:44:14.529Z,0.00
2023-01-15T01:45:14.548Z,0.00
2023-01-15T01:46:14.557Z,0.00
2023-01-15T01:47:14.569Z,0.00
2023-01-15T01:48:14.449Z,0.00
2023-01-15T01:49:14.498Z,0.00
2023-01-15T01:50:14.544Z,0.00
2023-01-15T01:51:14.431Z,0.00
2023-01-15T01:52:14.543Z,0.00
2023-01-15T01:53:14.431Z,0.00
2023-01-15T01:54:14.687Z,0.00
2023-01-15T01:55:14.384Z,0.00
2023-01-15T01:56:14.387Z,0.00
2023-01-15T01:57:14.707Z,0.00
2023-01-15T01:58:14.715Z,0.00
2023-01-15T01:59:14.651Z,0.00
2023-01-15T02:00:14.780Z,0.00
2023-01-15T02:01:14.458Z,0.00
2023-01-15T02:02:14.826Z,0.00
2023-01-15T02:03:14.803Z,0.00
2023-01-15T02:04:14.563Z,0.00
2023-01-15T02:05:14.827Z,0.00
2023-01-15T02:06:14.621Z,0.00
2023-01-15T02:07:14.843Z,0.00
2023-01-15T02:08:14.311Z,0.00
2023-01-15T02:09:14.292Z,0.00
2023-01-15T02:10:14.571Z,0.00
2023-01-15T02:11:14.729Z,0.00
2023-01-15T02:12:14.313Z,0.00
2023-01-15T02:13:14.297Z,0.00
2023-01-15T02:14:14.930Z,0.00
2023-01-15T02:15:14.270Z,0.00
2023-01-15T02:16:14.371Z,0.00
2023-01-15T02:17:14.277Z,0.00
2023-01-15T02:18:14.556Z,0.00
2023-01-15T02:19:14.357Z,0.00
2023-01-15T02:20:14.787Z,0.00
2023-01-15T02:21:14.248Z,0.00
2023-01-15T02:22:14.228Z,0.00
2023-01-15T02:23:14.233Z,0.00
2023-01-15T02:24:14.229Z,0.00
2023-01-15T02:25:14.207Z,0.00
2023-01-15T02:26:14.246Z,0.00
2023-01-15T02:27:14.298Z,0.00
2023-01-15T02:28:14.288Z,0.00
2023-01-15T02:29:14.385Z,0.00
2023-01-15T02:30:14.437Z,0.00
2023-01-15T02:31:14.573Z,0.00
2023-01-15T02:32:14.204Z,0.00
2023-01-15T02:33:14.579Z,0.00
2023-01-15T02:34:14.622Z,0.00
2023-01-15T02:35:14.314Z,0.00
2023-01-15T02:36:14.545Z,0.00
2023-01-15T02:37:14.457Z,0.00
2023-01-15T02:38:14.153Z,0.00
2023-01-15T02:39:14.136Z,0.00
2023-01-15T02:40:14.195Z,0.00
2023-01-15T02:41:14.137Z,0.00
2023-01-15T02:42:14.250Z,0.00
2023-01-15T02:43:14.473Z,0.00
2023-01-15T02:44:14.086Z,0.00
2023-01-15T02:45:14.805Z,0.00
2023-01-15T02:46:14.913Z,0.00
2023-01-15T02:47:14.114Z,0.00
2023-01-15T02:48:14.470Z,0.00
2023-01-15T02:49:14.264Z,0.00
2023-01-15T02:50:14.403Z,0.00
2023-01-15T02:51:15.023Z,0.00
2023-01-15T02:52:14.813Z,0.00
2023-01-15T02:53:14.022Z,0.00
2023-01-15T02:54:14.056Z,0.00
2023-01-15T02:55:14.375Z,0.00
2023-01-15T02:56:15.039Z,0.00
2023-01-15T02:57:14.724Z,0.00
2023-01-15T02:58:14.498Z,0.00
2023-01-15T02:59:14.048Z,0.00
2023-01-15T03:00:14.011Z,0.00
2023-01-15T03:01:14.118Z,0.00
2023-01-15T03:02:14.198Z,0.00
2023-01-15T03:03:14.008Z,0.00
2023-01-15T03:04:14.027Z,0.00
2023-01-15T03:05:14.077Z,0.00
2023-01-15T03:06:14.122Z,0.00
2023-01-15T03:07:13.968Z,0.00
2023-01-15T03:08:13.960Z,0.00
2023-01-15T03:09:14.284Z,0.00
2023-01-15T03:10:13.938Z,0.00
2023-01-15T03:11:14.041Z,0.00
2023-01-15T03:12:13.966Z,0.00
2023-01-15T03:13:14.337Z,0.00
2023-01-15T03:14:14.227Z,0.00
2023-01-15T03:15:13.907Z,0.00
2023-01-15T03:16:14.452Z,0.00
2023-01-15T03:17:14.062Z,0.00
2023-01-15T03:18:13.916Z,0.00
2023-01-15T03:19:14.591Z,0.00
2023-01-15T03:20:13.948Z,0.00
2023-01-15T03:21:13.894Z,0.00
2023-01-15T03:22:13.926Z,0.00
2023-01-15T03:23:14.767Z,0.00
2023-01-15T03:24:14.594Z,0.00
2023-01-15T03:25:14.240Z,0.00
2023-01-15T03:26:14.308Z,0.00
2023-01-15T03:27:13.933Z,0.00
2023-01-15T03:28:14.154Z,0.00
2023-01-15T03:29:14.705Z,0.00
2023-01-15T03:30:14.189Z,0.00
2023-01-15T03:31:14.769Z,0.00
2023-01-15T03:32:14.291Z,0.00
2023-01-15T03:33:14.382Z,0.00
2023-01-15T03:34:14.143Z,0.00
2023-01-15T03:35:14.633Z,0.00
2023-01-15T03:36:13.923Z,0.00
2023-01-15T03:37:13.913Z,0.00
2023-01-15T03:38:14.152Z,0.00
2023-01-15T03:39:13.724Z,0.00
2023-01-15T03:40:13.737Z,0.00
2023-01-15T03:41:13.727Z,0.00
2023-01-15T03:42:13.721Z,0.00
2023-01-15T03:43:13.757Z,0.00
2023-01-15T03:44:13.730Z,0.00
2023-01-15T03:45:13.712Z,0.00
2023-01-15T03:46:13.709Z,0.00
2023-01-15T03:47:13.693Z,0.00
2023-01-15T03:48:13.702Z,0.00
2023-01-15T03:49:13.744Z,0.00
2023-01-15T03:50:13.725Z,0.00
2023-01-15T03:51:13.671Z,0.00
2023-01-15T03:52:13.749Z,0.00
2023-01-15T03:53:13.805Z,0.00
2023-01-15T03:54:13.848Z,0.00
2023-01-15T03:55:13.617Z,0.00
2023-01-15T03:56:13.620Z,0.00
2023-01-15T03:57:13.626Z,0.00
2023-01-15T03:58:13.645Z,0.00
2023-01-15T03:59:13.611Z,0.00
2023-01-15T04:00:13.607Z,0.00
2023-01-15T04:01:13.662Z,0.00
2023-01-15T04:02:13.799Z,0.00
2023-01-15T04:03:13.745Z,0.00
2023-01-15T04:04:13.769Z,0.00
2023-01-15T04:05:13.566Z,0.00
2023-01-15T04:06:13.584Z,0.00
2023-01-15T04:07:13.798Z,0.00
2023-01-15T04:08:15.335Z,0.00
2023-01-15T04:09:13.772Z,0.00
2023-01-15T04:10:13.522Z,0.00
2023-01-15T04:11:13.854Z,0.00
2023-01-15T04:12:13.815Z,0.00
2023-01-15T04:13:13.520Z,0.00
2023-01-15T04:14:13.516Z,0.00
2023-01-15T04:15:13.492Z,0.00
2023-01-15T04:16:13.489Z,0.00
2023-01-15T04:17:13.473Z,0.00
2023-01-15T04:18:13.492Z,0.00
2023-01-15T04:19:13.520Z,0.00
2023-01-15T04:20:13.553Z,0.00
2023-01-15T04:21:13.444Z,0.00
2023-01-15T04:22:13.460Z,0.00
2023-01-15T04:23:13.462Z,0.00
2023-01-15T04:24:13.575Z,0.00
2023-01-15T04:25:13.785Z,0.00
2023-01-15T04:26:13.432Z,0.00
2023-01-15T04:27:13.556Z,0.00
2023-01-15T04:28:13.961Z,0.00
2023-01-15T04:29:13.978Z,0.00
2023-01-15T04:30:13.405Z,0.00
2023-01-15T04:31:13.418Z,0.00
2023-01-15T04:32:13.539Z,0.00
2023-01-15T04:33:14.163Z,0.00
2023-01-15T04:34:13.519Z,0.00
2023-01-15T04:35:13.746Z,0.00
2023-01-15T04:36:13.927Z,0.00
2023-01-15T04:37:13.382Z,0.00
2023-01-15T04:38:14.101Z,0.00
2023-01-15T04:39:13.502Z,0.00
2023-01-15T04:40:13.485Z,0.00
2023-01-15T04:41:13.331Z,0.00
2023-01-15T04:42:14.260Z,0.00
2023-01-15T04:43:13.987Z,0.00
2023-01-15T04:44:13.532Z,0.00
2023-01-15T04:45:13.687Z,0.00
2023-01-15T04:46:13.336Z,0.00
2023-01-15T04:47:13.315Z,0.00
2023-01-15T04:48:13.304Z,0.00
2023-01-15T04:49:13.518Z,0.00
2023-01-15T04:50:13.345Z,0.00
2023-01-15T04:51:14.250Z,0.00
2023-01-15T04:52:13.281Z,0.00
2023-01-15T04:53:13.317Z,0.00
2023-01-15T04:54:14.054Z,0.00
2023-01-15T04:55:13.307Z,0.00
2023-01-15T04:56:13.249Z,0.00
2023-01-15T04:57:13.258Z,0.00
2023-01-15T04:58:13.296Z,0.00
2023-01-15T04:59:13.317Z,0.00
2023-01-15T05:00:13.396Z,0.00
2023-01-15T05:01:13.544Z,0.00
2023-01-15T05:02:15.223Z,0.00
2023-01-15T05:03:13.530Z,0.00
2023-01-15T05:04:13.620Z,0.00
2023-01-15T05:05:13.634Z,0.00
2023-01-15T05:06:13.502Z,0.00
2023-01-15T05:07:13.481Z,0.00
2023-01-15T05:08:13.767Z,0.00
2023-01-15T05:09:13.810Z,0.00
2023-01-15T05:10:13.185Z,0.00
2023-01-15T05:11:13.900Z,0.00
2023-01-15T05:12:13.511Z,0.00
2023-01-15T05:13:13.405Z,0.00
2023-01-15T05:14:14.048Z,0.00
2023-01-15T05:15:13.814Z,0.00
2023-01-15T05:16:13.229Z,0.00
2023-01-15T05:17:13.111Z,0.00
2023-01-15T05:18:13.546Z,0.00
2023-01-15T05:19:14.527Z,0.00
2023-01-15T05:20:13.101Z,0.00
2023-01-15T05:21:13.775Z,0.00
2023-01-15T05:22:13.268Z,0.00
2023-01-15T05:23:13.451Z,0.00
2023-01-15T05:24:13.083Z,0.00
2023-01-15T05:25:13.056Z,0.00
2023-01-15T05:26:13.244Z,0.00
2023-01-15T05:27:13.046Z,0.00
2023-01-15T05:28:13.061Z,0.00
2023-01-15T05:29:13.023Z,0.00
2023-01-15T05:30:13.000Z,0.00
2023-01-15T05:31:12.999Z,0.00
2023-01-15T05:32:13.019Z,0.00
2023-01-15T05:33:13.005Z,0.00
2023-01-15T05:34:12.970Z,0.00
2023-01-15T05:35:13.019Z,0.00
2023-01-15T05:36:13.060Z,0.00
2023-01-15T05:37:12.953Z,0.00
2023-01-15T05:38:13.173Z,0.00
2023-01-15T05:39:13.212Z,0.00
2023-01-15T05:40:13.268Z,0.00
2023-01-15T05:41:13.222Z,0.00
2023-01-15T05:42:13.152Z,0.00
2023-01-15T05:43:13.250Z,0.00
2023-01-15T05:44:13.292Z,0.00
2023-01-15T05:45:13.284Z,0.00
2023-01-15T05:46:12.921Z,0.00
2023-01-15T05:47:12.893Z,0.00
2023-01-15T05:48:12.900Z,0.00
2023-01-15T05:49:12.902Z,0.00
2023-01-15T05:50:12.918Z,0.00
2023-01-15T05:51:12.922Z,0.00
2023-01-15T05:52:12.940Z,0.00
2023-01-15T05:53:12.887Z,0.00
2023-01-15T05:54:12.948Z,0.00
2023-01-15T05:55:12.914Z,0.00
2023-01-15T05:56:12.962Z,0.00
2023-01-15T05:57:12.853Z,0.00
2023-01-15T05:58:12.847Z,0.00
2023-01-15T05:59:12.837Z,0.00
2023-01-15T06:00:12.808Z,0.00
2023-01-15T06:01:12.798Z,0.00
2023-01-15T06:02:12.833Z,0.00
2023-01-15T06:03:12.888Z,0.00
2023-01-15T06:04:12.908Z,0.00
2023-01-15T06:05:13.000Z,0.00
2023-01-15T06:06:12.887Z,0.00
2023-01-15T06:07:12.825Z,0.00
2023-01-15T06:08:12.910Z,0.00
2023-01-15T06:09:12.834Z,0.00
2023-01-15T06:10:12.857Z,0.00
2023-01-15T06:11:12.740Z,0.00
2023-01-15T06:12:12.784Z,0.00
2023-01-15T06:13:12.824Z,0.00
2023-01-15T06:14:12.883Z,0.00
2023-01-15T06:15:12.925Z,0.00
2023-01-15T06:16:13.044Z,0.00
2023-01-15T06:17:12.724Z,0.00
2023-01-15T06:18:13.003Z,0.00
2023-01-15T06:19:12.697Z,0.00
2023-01-15T06:20:13.113Z,0.00
2023-01-15T06:21:13.158Z,0.00
2023-01-15T06:22:13.142Z,0.00
2023-01-15T06:23:12.713Z,0.00
2023-01-15T06:24:12.744Z,0.00
2023-01-15T06:25:13.172Z,0.00
2023-01-15T06:26:13.231Z,0.00
2023-01-15T06:27:13.195Z,0.00
2023-01-15T06:28:12.799Z,0.00
2023-01-15T06:29:12.638Z,0.00
2023-01-15T06:30:13.242Z,0.00
2023-01-15T06:31:12.870Z,0.00
2023-01-15T06:32:12.602Z,0.00
2023-01-15T06:33:13.009Z,0.00
2023-01-15T06:34:12.810Z,0.00
2023-01-15T06:35:13.310Z,0.00
2023-01-15T06:36:13.287Z,0.00
2023-01-15T06:37:13.338Z,0.00
2023-01-15T06:38:13.351Z,0.00
2023-01-15T06:39:12.614Z,0.00
2023-01-15T06:40:12.836Z,0.00
2023-01-15T06:41:12.606Z,0.00
2023-01-15T06:42:12.570Z,0.00
2023-01-15T06:43:13.120Z,0.00
2023-01-15T06:44:12.661Z,0.00
2023-01-15T06:45:12.578Z,0.00
2023-01-15T06:46:13.225Z,0.00
2023-01-15T06:47:12.569Z,0.00
2023-01-15T06:48:13.157Z,0.00
2023-01-15T06:49:12.538Z,0.00
2023-01-15T06:50:12.548Z,0.00
2023-01-15T06:51:12.659Z,0.00
2023-01-15T06:52:12.694Z,0.00
2023-01-15T06:53:12.506Z,0.00
2023-01-15T06:54:12.496Z,0.00
2023-01-15T06:55:12.819Z,0.00
2023-01-15T06:56:12.855Z,0.00
2023-01-15T06:57:12.585Z,0.00
2023-01-15T06:58:12.712Z,0.00
2023-01-15T06:59:13.005Z,0.00
2023-01-15T07:00:13.036Z,4.00
2023-01-15T07:01:13.207Z,4.00
2023-01-15T07:02:12.614Z,1.00
2023-01-15T07:03:12.774Z,1.00
2023-01-15T07:04:13.166Z,1.00
2023-01-15T07:05:13.287Z,9.00
2023-01-15T07:06:13.087Z,13.00
2023-01-15T07:07:12.575Z,5.00
2023-01-15T07:08:12.404Z,10.00
2023-01-15T07:09:12.502Z,6.00
2023-01-15T07:10:12.374Z,14.00
2023-01-15T07:11:12.426Z,31.00
2023-01-15T07:12:12.961Z,36.00
2023-01-15T07:13:12.397Z,41.00
2023-01-15T07:14:12.431Z,37.00
2023-01-15T07:15:12.487Z,45.00
2023-01-15T07:16:12.949Z,53.00
2023-01-15T07:17:13.101Z,53.00
2023-01-15T07:18:13.684Z,45.00
2023-01-15T07:19:13.292Z,37.00
2023-01-15T07:20:12.293Z,64.00
2023-01-15T07:21:12.290Z,68.00
2023-01-15T07:22:12.297Z,82.00
2023-01-15T07:23:13.948Z,100.00
2023-01-15T07:24:12.763Z,106.00
2023-01-15T07:25:12.279Z,115.00
2023-01-15T07:26:12.305Z,127.00
2023-01-15T07:27:12.331Z,122.00
2023-01-15T07:28:12.249Z,138.00
2023-01-15T07:29:12.418Z,144.00
2023-01-15T07:30:12.337Z,151.00
2023-01-15T07:31:12.414Z,170.00
2023-01-15T07:32:12.226Z,175.00
2023-01-15T07:33:12.246Z,188.00
2023-01-15T07:34:12.795Z,203.00
2023-01-15T07:35:12.487Z,209.00
2023-01-15T07:36:12.624Z,226.00
2023-01-15T07:37:12.640Z,238.00
2023-01-15T07:38:12.189Z,249.00
2023-01-15T07:39:12.295Z,248.00
2023-01-15T07:40:12.928Z,235.00
2023-01-15T07:41:12.207Z,211.00
2023-01-15T07:42:12.944Z,208.00
2023-01-15T07:43:12.274Z,226.00
2023-01-15T07:44:13.003Z,272.00
2023-01-15T07:45:12.514Z,312.00
2023-01-15T07:46:12.129Z,328.00
2023-01-15T07:47:12.647Z,349.00
2023-01-15T07:48:12.211Z,461.00
2023-01-15T07:49:12.514Z,542.00
2023-01-15T07:50:12.186Z,571.00
2023-01-15T07:51:12.300Z,609.00
2023-01-15T07:52:12.305Z,635.00
2023-01-15T07:53:12.124Z,660.00
2023-01-15T07:54:12.109Z,682.00
2023-01-15T07:55:12.551Z,689.00
2023-01-15T07:56:12.120Z,707.00
2023-01-15T07:57:12.134Z,709.00
2023-01-15T07:58:12.154Z,716.00
2023-01-15T07:59:12.236Z,725.00
2023-01-15T08:00:12.324Z,706.00
2023-01-15T08:01:12.205Z,701.00
2023-01-15T08:02:12.053Z,697.00
2023-01-15T08:03:12.032Z,758.00
2023-01-15T08:04:12.064Z,654.00
2023-01-15T08:05:12.153Z,745.00
2023-01-15T08:06:11.998Z,775.00
2023-01-15T08:07:11.988Z,924.00
2023-01-15T08:08:11.978Z,952.00
2023-01-15T08:09:11.987Z,1047.00
2023-01-15T08:10:11.987Z,1263.00
2023-01-15T08:11:11.988Z,1403.00
2023-01-15T08:12:11.988Z,1393.00
2023-01-15T08:13:11.965Z,1245.00
2023-01-15T08:14:11.940Z,1502.00
2023-01-15T08:15:11.965Z,1436.00
2023-01-15T08:16:11.951Z,1638.00
2023-01-15T08:17:11.925Z,1442.00
2023-01-15T08:18:11.919Z,1708.00
2023-01-15T08:19:11.907Z,1473.00
2023-01-15T08:20:11.928Z,1328.00
2023-01-15T08:21:11.896Z,1943.00
2023-01-15T08:22:11.939Z,2184.00
2023-01-15T08:23:11.956Z,1968.00
2023-01-15T08:24:11.888Z,2111.00
2023-01-15T08:25:11.894Z,2420.00
2023-01-15T08:26:11.864Z,2493.00
2023-01-15T08:27:11.875Z,2373.00
2023-01-15T08:28:11.853Z,2253.00
2023-01-15T08:29:11.842Z,2404.00
2023-01-15T08:30:11.854Z,2427.00
2023-01-15T08:31:11.826Z,2455.00
2023-01-15T08:32:11.885Z,2459.00
2023-01-15T08:33:11.859Z,2774.00
2023-01-15T08:34:11.802Z,3010.00
2023-01-15T08:35:11.901Z,2998.00
2023-01-15T08:36:11.791Z,2954.00
2023-01-15T08:37:11.791Z,2962.00
2023-01-15T08:38:11.802Z,3011.00
2023-01-15T08:39:11.796Z,3131.00
2023-01-15T08:40:11.806Z,3116.00
2023-01-15T08:41:11.770Z,3075.00
2023-01-15T08:42:11.754Z,3136.00
2023-01-15T08:43:11.769Z,3176.00
2023-01-15T08:44:11.749Z,3291.00
2023-01-15T08:45:11.770Z,3448.00
2023-01-15T08:46:11.758Z,3540.00
2023-01-15T08:47:11.722Z,3661.00
2023-01-15T08:48:11.731Z,4004.00
2023-01-15T08:49:11.785Z,3797.00
2023-01-15T08:50:11.864Z,3438.00
2023-01-15T08:51:11.781Z,3486.00
2023-01-15T08:52:11.763Z,3387.00
2023-01-15T08:53:11.826Z,3437.00
2023-01-15T08:54:11.749Z,3649.00
2023-01-15T08:55:11.688Z,3793.00
2023-01-15T08:56:11.668Z,3746.00
2023-01-15T08:57:11.679Z,2601.00
2023-01-15T08:58:11.916Z,3559.00
2023-01-15T08:59:12.298Z,3444.00
2023-01-15T09:00:11.655Z,3532.00
2023-01-15T09:01:11.779Z,3390.00
2023-01-15T09:02:12.345Z,3477.00
2023-01-15T09:03:11.669Z,3482.00
2023-01-15T09:04:11.620Z,3143.00
2023-01-15T09:05:11.627Z,2906.00
2023-01-15T09:06:11.645Z,3295.00
2023-01-15T09:07:11.657Z,3360.00
2023-01-15T09:08:11.652Z,3314.00
2023-01-15T09:09:11.803Z,3354.00
2023-01-15T09:10:11.748Z,3431.00
2023-01-15T09:11:11.638Z,3492.00
2023-01-15T09:12:11.633Z,3493.00
2023-01-15T09:13:11.741Z,3530.00
2023-01-15T09:14:59.343Z,3627.00
2023-01-15T09:15:11.578Z,3550.00
2023-01-15T09:16:12.485Z,3074.00
2023-01-15T09:17:11.591Z,3358.00
2023-01-15T09:18:11.602Z,3420.00
2023-01-15T09:19:11.698Z,3439.00
2023-01-15T09:20:11.675Z,3475.00
2023-01-15T09:21:11.669Z,3520.00
2023-01-15T09:22:11.534Z,2961.00
2023-01-15T09:23:11.718Z,3496.00
2023-01-15T09:24:11.840Z,3680.00
2023-01-15T09:25:11.669Z,3726.00
2023-01-15T09:26:11.600Z,3697.00
2023-01-15T09:27:11.850Z,3762.00
2023-01-15T09:28:11.637Z,3872.00
2023-01-15T09:29:11.536Z,4024.00
2023-01-15T09:30:11.515Z,4130.00
2023-01-15T09:31:11.962Z,3805.00
2023-01-15T09:32:11.601Z,3737.00
2023-01-15T09:33:11.503Z,3317.00
2023-01-15T09:34:12.326Z,4058.00
2023-01-15T09:35:11.416Z,4400.00
2023-01-15T09:36:11.418Z,4333.00
2023-01-15T09:37:11.695Z,4615.00
2023-01-15T09:38:11.393Z,5181.00
2023-01-15T09:39:12.161Z,4759.00
2023-01-15T09:40:11.541Z,4843.00
2023-01-15T09:41:11.737Z,4680.00
2023-01-15T09:42:11.432Z,4787.00
2023-01-15T09:43:11.640Z,4640.00
2023-01-15T09:44:11.413Z,3639.00
2023-01-15T09:45:11.419Z,4851.00
2023-01-15T09:46:11.552Z,5249.00
2023-01-15T09:47:11.448Z,6851.00
2023-01-15T09:48:11.324Z,5101.00
2023-01-15T09:49:11.384Z,5759.00
2023-01-15T09:50:11.330Z,5546.00
2023-01-15T09:51:11.337Z,5154.00
2023-01-15T09:52:11.305Z,4986.00
2023-01-15T09:53:11.439Z,4269.00
2023-01-15T09:54:11.458Z,3757.00
2023-01-15T09:55:11.313Z,3308.00
2023-01-15T09:56:11.388Z,3010.00
2023-01-15T09:57:11.334Z,2967.00
2023-01-15T09:58:11.323Z,3042.00
2023-01-15T09:59:12.774Z,2836.00
2023-01-15T10:00:11.251Z,2608.00
2023-01-15T10:01:11.580Z,2542.00
2023-01-15T10:02:11.595Z,2568.00
2023-01-15T10:03:11.692Z,2869.00
2023-01-15T10:04:11.613Z,2861.00
2023-01-15T10:05:11.214Z,2678.00
2023-01-15T10:06:11.235Z,2804.00
2023-01-15T10:07:11.222Z,2934.00
2023-01-15T10:08:11.195Z,3107.00
2023-01-15T10:09:11.191Z,3530.00
2023-01-15T10:10:11.180Z,3821.00
2023-01-15T10:11:11.219Z,3993.00
2023-01-15T10:12:11.188Z,5387.00
2023-01-15T10:13:11.180Z,4375.00
2023-01-15T10:14:11.162Z,3256.00
2023-01-15T10:15:11.207Z,5654.00
2023-01-15T10:16:11.467Z,6481.00
2023-01-15T10:17:11.235Z,9877.00
2023-01-15T10:18:11.208Z,8775.00
2023-01-15T10:19:11.210Z,8042.00
2023-01-15T10:20:11.171Z,7697.00
2023-01-15T10:21:11.259Z,6133.00
2023-01-15T10:22:11.106Z,7216.00
2023-01-15T10:23:11.116Z,5591.00
2023-01-15T10:24:11.089Z,7256.00
2023-01-15T10:25:11.112Z,7090.00
2023-01-15T10:26:11.106Z,5713.00
2023-01-15T10:27:11.087Z,5277.00
2023-01-15T10:28:11.083Z,5190.00
2023-01-15T10:29:11.077Z,4984.00
2023-01-15T10:30:11.064Z,5009.00
2023-01-15T10:31:11.094Z,4990.00
2023-01-15T10:32:11.062Z,4515.00
2023-01-15T10:33:11.069Z,4637.00
2023-01-15T10:34:11.083Z,4617.00
2023-01-15T10:35:11.037Z,4186.00
2023-01-15T10:36:11.014Z,3616.00
2023-01-15T10:37:11.040Z,3820.00
2023-01-15T10:38:11.013Z,4052.00
2023-01-15T10:39:10.993Z,3498.00
2023-01-15T10:40:10.992Z,3726.00
2023-01-15T10:41:10.983Z,4087.00
2023-01-15T10:42:11.150Z,3088.00
2023-01-15T10:43:10.978Z,5130.00
2023-01-15T10:44:10.991Z,6345.00
2023-01-15T10:45:10.952Z,6631.00
2023-01-15T10:46:11.000Z,5302.00
2023-01-15T10:47:10.961Z,3820.00
2023-01-15T10:48:10.947Z,3948.00
2023-01-15T10:49:10.936Z,8613.00
2023-01-15T10:50:10.941Z,6115.00
2023-01-15T10:51:10.920Z,2377.00
2023-01-15T10:52:10.938Z,9548.00
2023-01-15T10:53:10.909Z,4760.00
2023-01-15T10:54:10.900Z,8718.00
2023-01-15T10:55:11.725Z,10329.00
2023-01-15T10:56:10.902Z,10997.00
2023-01-15T10:57:10.901Z,11218.00
2023-01-15T10:58:11.279Z,10089.00
2023-01-15T10:59:10.859Z,9974.00
2023-01-15T11:00:10.872Z,3174.00
2023-01-15T11:01:10.968Z,11811.00
2023-01-15T11:02:11.061Z,6753.00
2023-01-15T11:03:10.851Z,7152.00
2023-01-15T11:04:10.933Z,5555.00
2023-01-15T11:05:10.835Z,7404.00
2023-01-15T11:06:10.836Z,10166.00
2023-01-15T11:07:11.330Z,10101.00
2023-01-15T11:08:54.911Z,8608.00
2023-01-15T11:09:12.200Z,8320.00
2023-01-15T11:10:10.796Z,8889.00
2023-01-15T11:11:10.793Z,6905.00
2023-01-15T11:12:10.810Z,11076.00
2023-01-15T11:13:11.034Z,7615.00
2023-01-15T11:14:10.781Z,2680.00
2023-01-15T11:15:10.773Z,11117.00
2023-01-15T11:16:10.776Z,8560.00
2023-01-15T11:17:10.771Z,11949.00
2023-01-15T11:18:10.761Z,12234.00
2023-01-15T11:19:10.996Z,10964.00
2023-01-15T11:20:11.062Z,7228.00
2023-01-15T11:21:10.767Z,8418.00
2023-01-15T11:22:11.315Z,11384.00
2023-01-15T11:23:11.483Z,7666.00
2023-01-15T11:24:10.703Z,6122.00
2023-01-15T11:25:10.694Z,6059.00
2023-01-15T11:26:11.113Z,5582.00
2023-01-15T11:27:10.713Z,5204.00
2023-01-15T11:28:10.686Z,4973.00
2023-01-15T11:29:10.817Z,5567.00
2023-01-15T11:30:10.672Z,6338.00
2023-01-15T11:31:10.673Z,6100.00
2023-01-15T11:32:10.690Z,5274.00
2023-01-15T11:33:10.701Z,6156.00
2023-01-15T11:34:10.641Z,4995.00
2023-01-15T11:35:10.663Z,5817.00
2023-01-15T11:36:11.289Z,6283.00
2023-01-15T11:37:10.782Z,5985.00
2023-01-15T11:38:10.665Z,6816.00
2023-01-15T11:39:10.662Z,4523.00
2023-01-15T11:40:10.620Z,10135.00
2023-01-15T11:41:10.587Z,8584.00
2023-01-15T11:42:10.609Z,11929.00
2023-01-15T11:43:10.654Z,9814.00
2023-01-15T11:44:10.892Z,11766.00
2023-01-15T11:45:10.626Z,11021.00
2023-01-15T11:46:10.681Z,10588.00
2023-01-15T11:47:10.579Z,5869.00
2023-01-15T11:48:10.550Z,11128.00
2023-01-15T11:49:10.539Z,7660.00
2023-01-15T11:50:10.645Z,8446.00
2023-01-15T11:51:10.529Z,7260.00
2023-01-15T11:52:10.687Z,8099.00
2023-01-15T11:53:10.522Z,6010.00
2023-01-15T11:54:10.507Z,11880.00
2023-01-15T11:55:10.878Z,12778.00
2023-01-15T11:56:10.890Z,7237.00
2023-01-15T11:57:10.728Z,9585.00
2023-01-15T11:58:10.995Z,5818.00
2023-01-15T11:59:10.492Z,14344.00
2023-01-15T12:00:10.468Z,6709.00
2023-01-15T12:01:10.469Z,11276.00
2023-01-15T12:02:10.478Z,13174.00
2023-01-15T12:03:10.485Z,6487.00
2023-01-15T12:04:10.485Z,12392.00
2023-01-15T12:05:10.435Z,7842.00
2023-01-15T12:06:10.488Z,4622.00
2023-01-15T12:07:10.447Z,11896.00
2023-01-15T12:08:10.483Z,10598.00
2023-01-15T12:09:10.446Z,10222.00
2023-01-15T12:10:10.409Z,11296.00
2023-01-15T12:11:25.461Z,8934.00
2023-01-15T12:12:10.392Z,6613.00
2023-01-15T12:13:10.635Z,4701.00
2023-01-15T12:14:10.373Z,4361.00
2023-01-15T12:15:10.365Z,6239.00
2023-01-15T12:16:10.411Z,5494.00
2023-01-15T12:17:10.386Z,4161.00
2023-01-15T12:18:10.360Z,2840.00
2023-01-15T12:19:10.360Z,8271.00
2023-01-15T12:20:10.334Z,9144.00
2023-01-15T12:21:10.322Z,7932.00
2023-01-15T12:22:10.338Z,3817.00
2023-01-15T12:23:10.332Z,8390.00
2023-01-15T12:24:10.311Z,6341.00
2023-01-15T12:25:10.310Z,9255.00
2023-01-15T12:26:10.309Z,10004.00
2023-01-15T12:27:10.289Z,8077.00
2023-01-15T12:28:11.511Z,4444.00
2023-01-15T12:29:10.272Z,3824.00
2023-01-15T12:30:10.266Z,10458.00
2023-01-15T12:31:10.323Z,9155.00
2023-01-15T12:32:10.272Z,6463.00
2023-01-15T12:33:10.367Z,6398.00
2023-01-15T12:34:10.325Z,9037.00
2023-01-15T12:35:10.236Z,6067.00
2023-01-15T12:36:10.226Z,6539.00
2023-01-15T12:37:10.213Z,7269.00
2023-01-15T12:38:11.844Z,11021.00
2023-01-15T12:39:10.359Z,10499.00
2023-01-15T12:40:10.415Z,6257.00
2023-01-15T12:41:10.268Z,3866.00
2023-01-15T12:42:10.185Z,7819.00
2023-01-15T12:43:10.625Z,9514.00
2023-01-15T12:44:10.166Z,4490.00
2023-01-15T12:45:10.403Z,7041.00
2023-01-15T12:46:10.429Z,3643.00